ISR661 LLBG-OMDB
Flight info
| Callsign | ISR661 |
|---|---|
| Flight time | 2h 43m |
| Altitude | 37000 |
| Route | SALAM N134 OSAMA DCT EGLOT R652 KULDI N318 NEVOL Q255 LUDEP P559 VUTEB |
| Aircraft | A320/M-SDE3FGHIRWY/LB1 |
Departure
| Time | 2026-05-05 17:15 |
|---|---|
| Airport | Ben Gurion International Airport (LLBG) |
Arrival
| Time | 2026-05-05 19:59 |
|---|---|
| Airport | Dubai International Airport (OMDB) |
| Time | Latitude | Longitude | Altitude | Speed | Heading |
|---|---|---|---|---|---|
| 2026-05-05 16:41 | 32.00055 | 34.87765 | 120 ft | 0 kts | 120° |
| 2026-05-05 17:04 | 32.00063 | 34.87750 | 120 ft | 3 kts | 121° |
| 2026-05-05 17:04 | 32.00074 | 34.87729 | 120 ft | 3 kts | 122° |
| 2026-05-05 17:04 | 32.00084 | 34.87708 | 119 ft | 3 kts | 120° |
| 2026-05-05 17:05 | 32.00094 | 34.87687 | 118 ft | 3 kts | 106° |
| 2026-05-05 17:05 | 32.00096 | 34.87668 | 116 ft | 3 kts | 58° |
| 2026-05-05 17:05 | 32.00093 | 34.87662 | 120 ft | 0 kts | 32° |
| 2026-05-05 17:08 | 32.00113 | 34.87676 | 117 ft | 7 kts | 33° |
| 2026-05-05 17:08 | 32.00165 | 34.87716 | 116 ft | 11 kts | 33° |
| 2026-05-05 17:08 | 32.00245 | 34.87775 | 117 ft | 15 kts | 30° |
| 2026-05-05 17:09 | 32.00342 | 34.87843 | 117 ft | 17 kts | 31° |
| 2026-05-05 17:09 | 32.00453 | 34.87922 | 119 ft | 19 kts | 31° |
| 2026-05-05 17:09 | 32.00544 | 34.87949 | 117 ft | 11 kts | 337° |
| 2026-05-05 17:09 | 32.00623 | 34.87942 | 119 ft | 13 kts | 29° |
| 2026-05-05 17:10 | 32.00710 | 34.88007 | 118 ft | 16 kts | 32° |
| 2026-05-05 17:10 | 32.00806 | 34.88077 | 118 ft | 17 kts | 31° |
| 2026-05-05 17:10 | 32.00913 | 34.88153 | 118 ft | 19 kts | 31° |
| 2026-05-05 17:10 | 32.01032 | 34.88240 | 117 ft | 21 kts | 31° |
| 2026-05-05 17:11 | 32.01164 | 34.88334 | 118 ft | 23 kts | 31° |
| 2026-05-05 17:11 | 32.01300 | 34.88445 | 118 ft | 25 kts | 40° |
| 2026-05-05 17:11 | 32.01417 | 34.88605 | 116 ft | 27 kts | 58° |
| 2026-05-05 17:11 | 32.01490 | 34.88800 | 117 ft | 22 kts | 72° |
| 2026-05-05 17:12 | 32.01516 | 34.88953 | 117 ft | 19 kts | 80° |
| 2026-05-05 17:12 | 32.01539 | 34.89110 | 120 ft | 19 kts | 79° |
| 2026-05-05 17:12 | 32.01565 | 34.89248 | 117 ft | 12 kts | 65° |
| 2026-05-05 17:12 | 32.01635 | 34.89265 | 119 ft | 12 kts | 347° |
| 2026-05-05 17:13 | 32.01731 | 34.89243 | 116 ft | 14 kts | 348° |
| 2026-05-05 17:13 | 32.01763 | 34.89200 | 114 ft | 6 kts | 261° |
| 2026-05-05 17:13 | 32.01759 | 34.89174 | 118 ft | 0 kts | 259° |
| 2026-05-05 17:14 | 32.01750 | 34.89121 | 118 ft | 28 kts | 259° |
| 2026-05-05 17:14 | 32.01675 | 34.88623 | 118 ft | 93 kts | 259° |
| 2026-05-05 17:14 | 32.01529 | 34.87674 | 119 ft | 140 kts | 259° |
| 2026-05-05 17:15 | 32.01340 | 34.86427 | 384 ft | 157 kts | 261° |
| 2026-05-05 17:15 | 32.01112 | 34.85170 | 1016 ft | 158 kts | 258° |
| 2026-05-05 17:15 | 32.00853 | 34.83911 | 1692 ft | 159 kts | 259° |
| 2026-05-05 17:15 | 32.00578 | 34.82588 | 2064 ft | 178 kts | 259° |
| 2026-05-05 17:16 | 32.00272 | 34.81090 | 2322 ft | 200 kts | 259° |
| 2026-05-05 17:16 | 31.99932 | 34.79380 | 2618 ft | 227 kts | 258° |
| 2026-05-05 17:16 | 31.99551 | 34.77515 | 3313 ft | 237 kts | 258° |
| 2026-05-05 17:16 | 31.99164 | 34.75611 | 4168 ft | 240 kts | 262° |
| 2026-05-05 17:17 | 31.99339 | 34.73673 | 5024 ft | 244 kts | 290° |
| 2026-05-05 17:17 | 32.00021 | 34.71847 | 5959 ft | 244 kts | 291° |
| 2026-05-05 17:17 | 32.00658 | 34.69978 | 6808 ft | 247 kts | 289° |
| 2026-05-05 17:17 | 32.01265 | 34.68066 | 7600 ft | 251 kts | 289° |
| 2026-05-05 17:18 | 32.01875 | 34.66127 | 8422 ft | 254 kts | 289° |
| 2026-05-05 17:18 | 32.02490 | 34.64155 | 9165 ft | 259 kts | 290° |
| 2026-05-05 17:18 | 32.02984 | 34.62095 | 9932 ft | 264 kts | 279° |
| 2026-05-05 17:18 | 32.03361 | 34.59979 | 10668 ft | 265 kts | 294° |
| 2026-05-05 17:19 | 32.04534 | 34.58307 | 11339 ft | 271 kts | 324° |
| 2026-05-05 17:19 | 32.06309 | 34.57509 | 12045 ft | 281 kts | 350° |
| 2026-05-05 17:19 | 32.08276 | 34.57767 | 12704 ft | 294 kts | 18° |
| 2026-05-05 17:19 | 32.09977 | 34.59175 | 13379 ft | 309 kts | 47° |
| 2026-05-05 17:20 | 32.10922 | 34.61480 | 13982 ft | 321 kts | 78° |
| 2026-05-05 17:20 | 32.10816 | 34.64115 | 14522 ft | 327 kts | 109° |
| 2026-05-05 17:20 | 32.09840 | 34.66537 | 15123 ft | 328 kts | 125° |
| 2026-05-05 17:20 | 32.08481 | 34.68700 | 15736 ft | 330 kts | 132° |
| 2026-05-05 17:21 | 32.07000 | 34.70771 | 16373 ft | 331 kts | 133° |
| 2026-05-05 17:21 | 32.05503 | 34.72859 | 16984 ft | 335 kts | 132° |
| 2026-05-05 17:21 | 32.04034 | 34.74999 | 17611 ft | 337 kts | 130° |
| 2026-05-05 17:22 | 32.01301 | 34.79559 | 18756 ft | 344 kts | 127° |
| 2026-05-05 17:22 | 31.99975 | 34.81880 | 19272 ft | 347 kts | 127° |
| 2026-05-05 17:22 | 31.98609 | 34.84279 | 19841 ft | 349 kts | 127° |
| 2026-05-05 17:22 | 31.97430 | 34.86809 | 20267 ft | 359 kts | 113° |
| 2026-05-05 17:23 | 31.96760 | 34.89687 | 20531 ft | 373 kts | 99° |
| 2026-05-05 17:23 | 31.96592 | 34.92793 | 20638 ft | 389 kts | 92° |
| 2026-05-05 17:23 | 31.96498 | 34.95998 | 20746 ft | 404 kts | 93° |
| 2026-05-05 17:23 | 31.96338 | 34.99361 | 20875 ft | 418 kts | 94° |
| 2026-05-05 17:24 | 31.96132 | 35.02825 | 21028 ft | 430 kts | 95° |
| 2026-05-05 17:24 | 31.95908 | 35.06353 | 21396 ft | 435 kts | 95° |
| 2026-05-05 17:24 | 31.95682 | 35.09932 | 21831 ft | 439 kts | 95° |
| 2026-05-05 17:24 | 31.95466 | 35.13533 | 22262 ft | 443 kts | 95° |
| 2026-05-05 17:25 | 31.95258 | 35.17161 | 22707 ft | 446 kts | 95° |
| 2026-05-05 17:25 | 31.95121 | 35.19626 | 23003 ft | 448 kts | 95° |
| 2026-05-05 17:25 | 31.94858 | 35.24494 | 23569 ft | 452 kts | 95° |
| 2026-05-05 17:25 | 31.94658 | 35.28201 | 23861 ft | 457 kts | 95° |
| 2026-05-05 17:26 | 31.94455 | 35.31938 | 24168 ft | 461 kts | 95° |
| 2026-05-05 17:26 | 31.94249 | 35.35717 | 24481 ft | 465 kts | 94° |
| 2026-05-05 17:26 | 31.94038 | 35.39527 | 24812 ft | 468 kts | 95° |
| 2026-05-05 17:26 | 31.93821 | 35.43359 | 25122 ft | 472 kts | 95° |
| 2026-05-05 17:27 | 31.93597 | 35.47229 | 25438 ft | 475 kts | 95° |
| 2026-05-05 17:27 | 31.93367 | 35.51128 | 25709 ft | 479 kts | 95° |
| 2026-05-05 17:27 | 31.93158 | 35.55054 | 26010 ft | 483 kts | 95° |
| 2026-05-05 17:27 | 31.92640 | 35.58950 | 26314 ft | 482 kts | 109° |
| 2026-05-05 17:28 | 31.91363 | 35.62568 | 26629 ft | 478 kts | 124° |
| 2026-05-05 17:28 | 31.89401 | 35.65702 | 26954 ft | 471 kts | 140° |
| 2026-05-05 17:28 | 31.87018 | 35.68326 | 27271 ft | 470 kts | 144° |
| 2026-05-05 17:28 | 31.84587 | 35.70918 | 27611 ft | 473 kts | 144° |
| 2026-05-05 17:29 | 31.82144 | 35.73512 | 27962 ft | 476 kts | 144° |
| 2026-05-05 17:29 | 31.79679 | 35.76124 | 28304 ft | 478 kts | 145° |
| 2026-05-05 17:29 | 31.77202 | 35.78756 | 28667 ft | 481 kts | 144° |
| 2026-05-05 17:29 | 31.74719 | 35.81407 | 28997 ft | 483 kts | 144° |
| 2026-05-05 17:30 | 31.73068 | 35.83170 | 29206 ft | 485 kts | 144° |
| 2026-05-05 17:30 | 31.70566 | 35.85844 | 29591 ft | 486 kts | 145° |
| 2026-05-05 17:30 | 31.68071 | 35.88514 | 30048 ft | 485 kts | 145° |
| 2026-05-05 17:30 | 31.65577 | 35.91182 | 30445 ft | 485 kts | 145° |
| 2026-05-05 17:31 | 31.63085 | 35.93842 | 30839 ft | 484 kts | 145° |
| 2026-05-05 17:31 | 31.60592 | 35.96495 | 31254 ft | 483 kts | 146° |
| 2026-05-05 17:31 | 31.58107 | 35.99136 | 31626 ft | 482 kts | 146° |
| 2026-05-05 17:31 | 31.55621 | 36.01773 | 32014 ft | 482 kts | 146° |
| 2026-05-05 17:32 | 31.53133 | 36.04407 | 32422 ft | 481 kts | 146° |
| 2026-05-05 17:32 | 31.50651 | 36.07029 | 32848 ft | 480 kts | 147° |
| 2026-05-05 17:32 | 31.48171 | 36.09646 | 33263 ft | 479 kts | 147° |
| 2026-05-05 17:32 | 31.45700 | 36.12253 | 33694 ft | 478 kts | 147° |
| 2026-05-05 17:33 | 31.43230 | 36.14859 | 34115 ft | 477 kts | 147° |
| 2026-05-05 17:33 | 31.40767 | 36.17462 | 34464 ft | 476 kts | 147° |
| 2026-05-05 17:33 | 31.38313 | 36.20059 | 34802 ft | 476 kts | 147° |
| 2026-05-05 17:33 | 31.35858 | 36.22657 | 35016 ft | 476 kts | 147° |
| 2026-05-05 17:34 | 31.33496 | 36.25417 | 35070 ft | 491 kts | 137° |
| 2026-05-05 17:34 | 31.31580 | 36.28806 | 35073 ft | 509 kts | 123° |
| 2026-05-05 17:34 | 31.30284 | 36.32705 | 35071 ft | 521 kts | 109° |
| 2026-05-05 17:34 | 31.29648 | 36.36901 | 35066 ft | 529 kts | 97° |
| 2026-05-05 17:35 | 31.29695 | 36.41214 | 35067 ft | 533 kts | 84° |
| 2026-05-05 17:35 | 31.30777 | 36.49806 | 35060 ft | 535 kts | 83° |
| 2026-05-05 17:36 | 31.30967 | 36.58434 | 35057 ft | 528 kts | 98° |
| 2026-05-05 17:36 | 31.30339 | 36.66995 | 35055 ft | 529 kts | 98° |
| 2026-05-05 17:37 | 31.29715 | 36.75560 | 35037 ft | 529 kts | 98° |
| 2026-05-05 17:37 | 31.29086 | 36.84117 | 35049 ft | 528 kts | 98° |
| 2026-05-05 17:38 | 31.28448 | 36.92670 | 35071 ft | 529 kts | 99° |
| 2026-05-05 17:38 | 31.27800 | 37.01249 | 35022 ft | 530 kts | 99° |
| 2026-05-05 17:39 | 31.27146 | 37.09832 | 35030 ft | 530 kts | 99° |
| 2026-05-05 17:39 | 31.26483 | 37.18410 | 35031 ft | 530 kts | 99° |
| 2026-05-05 17:40 | 31.25253 | 37.26771 | 35008 ft | 520 kts | 114° |
| 2026-05-05 17:40 | 31.22865 | 37.34713 | 35026 ft | 518 kts | 116° |
| 2026-05-05 17:41 | 31.20461 | 37.42652 | 35033 ft | 518 kts | 116° |
| 2026-05-05 17:41 | 31.18066 | 37.50586 | 35023 ft | 518 kts | 116° |
| 2026-05-05 17:42 | 31.15664 | 37.58513 | 35033 ft | 518 kts | 116° |
| 2026-05-05 17:42 | 31.13252 | 37.66433 | 35036 ft | 518 kts | 116° |
| 2026-05-05 17:43 | 31.10845 | 37.74351 | 35020 ft | 518 kts | 116° |
| 2026-05-05 17:43 | 31.08432 | 37.82264 | 35028 ft | 517 kts | 116° |
| 2026-05-05 17:44 | 31.06019 | 37.90161 | 35033 ft | 517 kts | 116° |
| 2026-05-05 17:44 | 31.03600 | 37.98065 | 35019 ft | 517 kts | 116° |
| 2026-05-05 17:45 | 31.01177 | 38.05955 | 35027 ft | 517 kts | 116° |
| 2026-05-05 17:45 | 30.98747 | 38.13831 | 35031 ft | 517 kts | 116° |
| 2026-05-05 17:46 | 30.96314 | 38.21716 | 35017 ft | 516 kts | 116° |
| 2026-05-05 17:46 | 30.93885 | 38.29580 | 35025 ft | 516 kts | 116° |
| 2026-05-05 17:47 | 30.91447 | 38.37434 | 35031 ft | 515 kts | 116° |
| 2026-05-05 17:47 | 30.89007 | 38.45274 | 35030 ft | 515 kts | 117° |
| 2026-05-05 17:48 | 30.86559 | 38.53100 | 35028 ft | 514 kts | 117° |
| 2026-05-05 17:48 | 30.84125 | 38.60871 | 35030 ft | 514 kts | 117° |
| 2026-05-05 17:49 | 30.81677 | 38.68691 | 35014 ft | 514 kts | 117° |
| 2026-05-05 17:49 | 30.79217 | 38.76485 | 35035 ft | 511 kts | 120° |
| 2026-05-05 17:50 | 30.76156 | 38.83857 | 35040 ft | 505 kts | 124° |
| 2026-05-05 17:50 | 30.73001 | 38.91209 | 35019 ft | 505 kts | 124° |
| 2026-05-05 17:51 | 30.69936 | 38.98363 | 35042 ft | 504 kts | 124° |
| 2026-05-05 17:51 | 30.66807 | 39.05641 | 35057 ft | 503 kts | 124° |
| 2026-05-05 17:52 | 30.63679 | 39.12903 | 35035 ft | 502 kts | 124° |
| 2026-05-05 17:52 | 30.60552 | 39.20142 | 35052 ft | 501 kts | 125° |
| 2026-05-05 17:53 | 30.57420 | 39.27359 | 35057 ft | 500 kts | 125° |
| 2026-05-05 17:53 | 30.54292 | 39.34569 | 35063 ft | 500 kts | 125° |
| 2026-05-05 17:54 | 30.51168 | 39.41761 | 35060 ft | 499 kts | 125° |
| 2026-05-05 17:54 | 30.48039 | 39.48948 | 35070 ft | 499 kts | 125° |
| 2026-05-05 17:55 | 30.44915 | 39.56134 | 35067 ft | 499 kts | 125° |
| 2026-05-05 17:55 | 30.41781 | 39.63314 | 35067 ft | 499 kts | 125° |
| 2026-05-05 17:56 | 30.38727 | 39.70560 | 35063 ft | 502 kts | 123° |
| 2026-05-05 17:56 | 30.35842 | 39.77952 | 35062 ft | 504 kts | 122° |
| 2026-05-05 17:57 | 30.33001 | 39.85310 | 35051 ft | 504 kts | 122° |
| 2026-05-05 17:57 | 30.30081 | 39.92691 | 35054 ft | 504 kts | 123° |
| 2026-05-05 17:58 | 30.27122 | 40.00057 | 35057 ft | 505 kts | 123° |
| 2026-05-05 17:58 | 30.24155 | 40.07423 | 35038 ft | 505 kts | 123° |
| 2026-05-05 17:59 | 30.21195 | 40.14794 | 35048 ft | 505 kts | 123° |
| 2026-05-05 17:59 | 30.18240 | 40.22165 | 35052 ft | 506 kts | 123° |
| 2026-05-05 18:00 | 30.15276 | 40.29537 | 35045 ft | 506 kts | 124° |
| 2026-05-05 18:00 | 30.12319 | 40.36851 | 35050 ft | 506 kts | 124° |
| 2026-05-05 18:01 | 30.09337 | 40.44210 | 35051 ft | 506 kts | 124° |
| 2026-05-05 18:01 | 30.06349 | 40.51573 | 35036 ft | 506 kts | 124° |
| 2026-05-05 18:02 | 30.03361 | 40.58939 | 35039 ft | 506 kts | 124° |
| 2026-05-05 18:02 | 30.00376 | 40.66304 | 35042 ft | 507 kts | 124° |
| 2026-05-05 18:03 | 29.97384 | 40.73662 | 35044 ft | 507 kts | 124° |
| 2026-05-05 18:03 | 29.94374 | 40.81010 | 35042 ft | 506 kts | 124° |
| 2026-05-05 18:04 | 29.91364 | 40.88348 | 35044 ft | 507 kts | 124° |
| 2026-05-05 18:04 | 29.88357 | 40.95693 | 35029 ft | 507 kts | 124° |
| 2026-05-05 18:05 | 29.85342 | 41.03036 | 35031 ft | 507 kts | 124° |
| 2026-05-05 18:05 | 29.82322 | 41.10375 | 35031 ft | 507 kts | 124° |
| 2026-05-05 18:06 | 29.79301 | 41.17710 | 35004 ft | 507 kts | 124° |
| 2026-05-05 18:06 | 29.76266 | 41.25036 | 35016 ft | 507 kts | 125° |
| 2026-05-05 18:07 | 29.73340 | 41.32442 | 35027 ft | 515 kts | 118° |
| 2026-05-05 18:07 | 29.70935 | 41.40203 | 35010 ft | 515 kts | 118° |
| 2026-05-05 18:08 | 29.68552 | 41.47901 | 35019 ft | 515 kts | 118° |
| 2026-05-05 18:08 | 29.66136 | 41.55649 | 35021 ft | 515 kts | 118° |
| 2026-05-05 18:09 | 29.63715 | 41.63384 | 35011 ft | 514 kts | 118° |
| 2026-05-05 18:09 | 29.61287 | 41.71120 | 35008 ft | 514 kts | 118° |
| 2026-05-05 18:10 | 29.58855 | 41.78838 | 34986 ft | 514 kts | 118° |
| 2026-05-05 18:10 | 29.56418 | 41.86561 | 34998 ft | 514 kts | 118° |
| 2026-05-05 18:11 | 29.53986 | 41.94267 | 35004 ft | 513 kts | 118° |
| 2026-05-05 18:11 | 29.51544 | 42.01976 | 34979 ft | 513 kts | 118° |
| 2026-05-05 18:12 | 29.49101 | 42.09669 | 34995 ft | 513 kts | 118° |
| 2026-05-05 18:12 | 29.46662 | 42.17359 | 35001 ft | 513 kts | 118° |
| 2026-05-05 18:13 | 29.44216 | 42.25044 | 34983 ft | 512 kts | 118° |
| 2026-05-05 18:13 | 29.41762 | 42.32710 | 34989 ft | 512 kts | 118° |
| 2026-05-05 18:14 | 29.39305 | 42.40367 | 34991 ft | 511 kts | 119° |
| 2026-05-05 18:14 | 29.36849 | 42.48020 | 34983 ft | 511 kts | 118° |
| 2026-05-05 18:15 | 29.34388 | 42.55663 | 34985 ft | 511 kts | 119° |
| 2026-05-05 18:15 | 29.31933 | 42.63280 | 34952 ft | 510 kts | 118° |
| 2026-05-05 18:16 | 29.29887 | 42.69618 | 34970 ft | 511 kts | 118° |
| 2026-05-05 18:16 | 29.27422 | 42.77249 | 34964 ft | 511 kts | 118° |
| 2026-05-05 18:17 | 29.24950 | 42.84879 | 34967 ft | 510 kts | 119° |
| 2026-05-05 18:17 | 29.22473 | 42.92495 | 34963 ft | 511 kts | 119° |
| 2026-05-05 18:18 | 29.19982 | 43.00108 | 34968 ft | 511 kts | 119° |
| 2026-05-05 18:18 | 29.17489 | 43.07726 | 34950 ft | 511 kts | 119° |
| 2026-05-05 18:19 | 29.14462 | 43.14950 | 34950 ft | 498 kts | 130° |
| 2026-05-05 18:19 | 29.10964 | 43.21792 | 34950 ft | 498 kts | 130° |
| 2026-05-05 18:20 | 29.07458 | 43.28630 | 34939 ft | 499 kts | 130° |
| 2026-05-05 18:20 | 29.03955 | 43.35474 | 34946 ft | 499 kts | 130° |
| 2026-05-05 18:21 | 29.00439 | 43.42312 | 34954 ft | 499 kts | 130° |
| 2026-05-05 18:21 | 28.96941 | 43.49109 | 34931 ft | 499 kts | 130° |
| 2026-05-05 18:22 | 28.93398 | 43.55989 | 34939 ft | 500 kts | 130° |
| 2026-05-05 18:22 | 28.89900 | 43.62782 | 34945 ft | 500 kts | 130° |
| 2026-05-05 18:23 | 28.86374 | 43.69614 | 34931 ft | 500 kts | 130° |
| 2026-05-05 18:23 | 28.82843 | 43.76436 | 34943 ft | 500 kts | 130° |
| 2026-05-05 18:24 | 28.79305 | 43.83260 | 34929 ft | 500 kts | 130° |
| 2026-05-05 18:24 | 28.75764 | 43.90080 | 34934 ft | 500 kts | 130° |
| 2026-05-05 18:25 | 28.72217 | 43.96897 | 34940 ft | 500 kts | 130° |
| 2026-05-05 18:25 | 28.68662 | 44.03706 | 34921 ft | 500 kts | 130° |
| 2026-05-05 18:26 | 28.65105 | 44.10519 | 34923 ft | 500 kts | 130° |
| 2026-05-05 18:26 | 28.61544 | 44.17325 | 34926 ft | 500 kts | 130° |
| 2026-05-05 18:27 | 28.57979 | 44.24125 | 34906 ft | 501 kts | 130° |
| 2026-05-05 18:27 | 28.54412 | 44.30931 | 34916 ft | 501 kts | 130° |
| 2026-05-05 18:28 | 28.49061 | 44.41125 | 34898 ft | 500 kts | 131° |
| 2026-05-05 18:28 | 28.45489 | 44.47909 | 34910 ft | 500 kts | 131° |
| 2026-05-05 18:29 | 28.41910 | 44.54691 | 34918 ft | 500 kts | 131° |
| 2026-05-05 18:29 | 28.38358 | 44.61429 | 34922 ft | 500 kts | 131° |
| 2026-05-05 18:30 | 28.34779 | 44.68195 | 34908 ft | 500 kts | 131° |
| 2026-05-05 18:30 | 28.31197 | 44.74947 | 34915 ft | 499 kts | 131° |
| 2026-05-05 18:31 | 28.27612 | 44.81700 | 34915 ft | 499 kts | 131° |
| 2026-05-05 18:31 | 28.24026 | 44.88440 | 34915 ft | 499 kts | 131° |
| 2026-05-05 18:32 | 28.20435 | 44.95171 | 34913 ft | 499 kts | 131° |
| 2026-05-05 18:32 | 28.16841 | 45.01898 | 34893 ft | 499 kts | 131° |
| 2026-05-05 18:33 | 28.13253 | 45.08628 | 34899 ft | 499 kts | 131° |
| 2026-05-05 18:33 | 28.09664 | 45.15359 | 34874 ft | 499 kts | 130° |
| 2026-05-05 18:34 | 28.06070 | 45.22080 | 34882 ft | 499 kts | 131° |
| 2026-05-05 18:34 | 28.02465 | 45.28796 | 34881 ft | 500 kts | 131° |
| 2026-05-05 18:35 | 27.98851 | 45.35518 | 34881 ft | 500 kts | 131° |
| 2026-05-05 18:35 | 27.95235 | 45.42250 | 34866 ft | 501 kts | 131° |
| 2026-05-05 18:36 | 27.91613 | 45.48980 | 34865 ft | 501 kts | 131° |
| 2026-05-05 18:36 | 27.88268 | 45.55891 | 34870 ft | 514 kts | 120° |
| 2026-05-05 18:37 | 27.87174 | 45.59781 | 34882 ft | 525 kts | 110° |
| 2026-05-05 18:37 | 27.86362 | 45.63811 | 34877 ft | 526 kts | 110° |
| 2026-05-05 18:37 | 27.84729 | 45.71862 | 34872 ft | 526 kts | 110° |
| 2026-05-05 18:38 | 27.83070 | 45.79918 | 34863 ft | 526 kts | 110° |
| 2026-05-05 18:38 | 27.81399 | 45.87964 | 34870 ft | 526 kts | 110° |
| 2026-05-05 18:39 | 27.79730 | 45.96010 | 34864 ft | 526 kts | 110° |
| 2026-05-05 18:39 | 27.78058 | 46.04056 | 34875 ft | 526 kts | 110° |
| 2026-05-05 18:40 | 27.76384 | 46.12096 | 34872 ft | 526 kts | 110° |
| 2026-05-05 18:40 | 27.74708 | 46.20135 | 34874 ft | 526 kts | 110° |
| 2026-05-05 18:41 | 27.73021 | 46.28174 | 34867 ft | 527 kts | 110° |
| 2026-05-05 18:41 | 27.71336 | 46.36222 | 34850 ft | 527 kts | 110° |
| 2026-05-05 18:42 | 27.69656 | 46.44275 | 34859 ft | 527 kts | 110° |
| 2026-05-05 18:42 | 27.67973 | 46.52325 | 34857 ft | 527 kts | 110° |
| 2026-05-05 18:43 | 27.66276 | 46.60374 | 34852 ft | 528 kts | 110° |
| 2026-05-05 18:43 | 27.64574 | 46.68428 | 34834 ft | 528 kts | 110° |
| 2026-05-05 18:44 | 27.62870 | 46.76479 | 34844 ft | 528 kts | 110° |
| 2026-05-05 18:44 | 27.61156 | 46.84529 | 34854 ft | 528 kts | 110° |
| 2026-05-05 18:45 | 27.59439 | 46.92572 | 34858 ft | 528 kts | 110° |
| 2026-05-05 18:45 | 27.57721 | 47.00611 | 34848 ft | 528 kts | 110° |
| 2026-05-05 18:46 | 27.55992 | 47.08662 | 34834 ft | 528 kts | 110° |
| 2026-05-05 18:46 | 27.54261 | 47.16704 | 34841 ft | 528 kts | 110° |
| 2026-05-05 18:47 | 27.52536 | 47.24689 | 34841 ft | 528 kts | 110° |
| 2026-05-05 18:47 | 27.50797 | 47.32733 | 34837 ft | 529 kts | 110° |
| 2026-05-05 18:48 | 27.49056 | 47.40777 | 34829 ft | 529 kts | 110° |
| 2026-05-05 18:48 | 27.47310 | 47.48817 | 34829 ft | 528 kts | 110° |
| 2026-05-05 18:49 | 27.45548 | 47.56852 | 34834 ft | 528 kts | 110° |
| 2026-05-05 18:49 | 27.43730 | 47.64854 | 34822 ft | 526 kts | 113° |
| 2026-05-05 18:50 | 27.41561 | 47.72687 | 34807 ft | 523 kts | 116° |
| 2026-05-05 18:50 | 27.39221 | 47.80420 | 34781 ft | 522 kts | 116° |
| 2026-05-05 18:51 | 27.36942 | 47.88173 | 34811 ft | 522 kts | 115° |
| 2026-05-05 18:51 | 27.34757 | 47.95911 | 34817 ft | 522 kts | 115° |
| 2026-05-05 18:52 | 27.32551 | 48.03740 | 34811 ft | 521 kts | 115° |
| 2026-05-05 18:52 | 27.30361 | 48.11452 | 34811 ft | 521 kts | 115° |
| 2026-05-05 18:53 | 27.28268 | 48.19242 | 34800 ft | 520 kts | 113° |
| 2026-05-05 18:53 | 27.26247 | 48.27050 | 34802 ft | 519 kts | 113° |
| 2026-05-05 18:54 | 27.24213 | 48.34831 | 34806 ft | 518 kts | 113° |
| 2026-05-05 18:54 | 27.22145 | 48.42585 | 34798 ft | 518 kts | 114° |
| 2026-05-05 18:55 | 27.20066 | 48.50317 | 34777 ft | 517 kts | 113° |
| 2026-05-05 18:55 | 27.17999 | 48.58043 | 34780 ft | 516 kts | 113° |
| 2026-05-05 18:56 | 27.15933 | 48.65762 | 34773 ft | 515 kts | 113° |
| 2026-05-05 18:56 | 27.13860 | 48.73460 | 34774 ft | 515 kts | 113° |
| 2026-05-05 18:57 | 27.11788 | 48.81149 | 34773 ft | 514 kts | 113° |
| 2026-05-05 18:57 | 27.09941 | 48.88913 | 34751 ft | 520 kts | 103° |
| 2026-05-05 18:58 | 27.09432 | 48.97056 | 34751 ft | 524 kts | 97° |
| 2026-05-05 18:58 | 27.09079 | 49.05216 | 34743 ft | 523 kts | 97° |
| 2026-05-05 18:59 | 27.08710 | 49.13316 | 34742 ft | 523 kts | 97° |
| 2026-05-05 18:59 | 27.08332 | 49.21468 | 34735 ft | 523 kts | 97° |
| 2026-05-05 19:00 | 27.07936 | 49.29670 | 34733 ft | 523 kts | 97° |
| 2026-05-05 19:00 | 27.07532 | 49.37818 | 34730 ft | 523 kts | 97° |
| 2026-05-05 19:01 | 27.07126 | 49.45958 | 34728 ft | 523 kts | 97° |
| 2026-05-05 19:01 | 27.06733 | 49.54109 | 34719 ft | 523 kts | 97° |
| 2026-05-05 19:02 | 27.06335 | 49.62208 | 34735 ft | 523 kts | 97° |
| 2026-05-05 19:02 | 27.05927 | 49.70355 | 34745 ft | 523 kts | 97° |
| 2026-05-05 19:03 | 27.05512 | 49.78503 | 34751 ft | 523 kts | 97° |
| 2026-05-05 19:03 | 27.05095 | 49.86653 | 34761 ft | 524 kts | 97° |
| 2026-05-05 19:04 | 27.04747 | 49.93433 | 34771 ft | 524 kts | 97° |
| 2026-05-05 19:04 | 27.04434 | 50.01597 | 34764 ft | 525 kts | 94° |
| 2026-05-05 19:05 | 27.04525 | 50.09803 | 34768 ft | 527 kts | 91° |
| 2026-05-05 19:05 | 27.04747 | 50.18015 | 34768 ft | 527 kts | 91° |
| 2026-05-05 19:06 | 27.04880 | 50.26233 | 34772 ft | 527 kts | 92° |
| 2026-05-05 19:06 | 27.04771 | 50.34435 | 34777 ft | 523 kts | 101° |
| 2026-05-05 19:07 | 27.03090 | 50.42252 | 34766 ft | 510 kts | 118° |
| 2026-05-05 19:07 | 27.00337 | 50.49550 | 34776 ft | 508 kts | 120° |
| 2026-05-05 19:08 | 26.97567 | 50.56841 | 34771 ft | 508 kts | 119° |
| 2026-05-05 19:08 | 26.94803 | 50.64118 | 34779 ft | 507 kts | 119° |
| 2026-05-05 19:09 | 26.92038 | 50.71399 | 34782 ft | 507 kts | 119° |
| 2026-05-05 19:09 | 26.89262 | 50.78664 | 34780 ft | 508 kts | 120° |
| 2026-05-05 19:10 | 26.86478 | 50.85931 | 34763 ft | 508 kts | 119° |
| 2026-05-05 19:10 | 26.83697 | 50.93195 | 34784 ft | 508 kts | 119° |
| 2026-05-05 19:11 | 26.80914 | 51.00464 | 34790 ft | 508 kts | 119° |
| 2026-05-05 19:11 | 26.78152 | 51.07740 | 34798 ft | 508 kts | 119° |
| 2026-05-05 19:12 | 26.75540 | 51.15105 | 34796 ft | 510 kts | 116° |
| 2026-05-05 19:12 | 26.73203 | 51.22611 | 34786 ft | 511 kts | 114° |
| 2026-05-05 19:13 | 26.70902 | 51.30119 | 34801 ft | 510 kts | 115° |
| 2026-05-05 19:13 | 26.68528 | 51.37580 | 34802 ft | 509 kts | 115° |
| 2026-05-05 19:14 | 26.66107 | 51.45009 | 34804 ft | 508 kts | 116° |
| 2026-05-05 19:14 | 26.63695 | 51.52440 | 34800 ft | 509 kts | 115° |
| 2026-05-05 19:15 | 26.61317 | 51.59838 | 34792 ft | 509 kts | 115° |
| 2026-05-05 19:15 | 26.58933 | 51.67271 | 34804 ft | 508 kts | 115° |
| 2026-05-05 19:16 | 26.56537 | 51.74686 | 34807 ft | 507 kts | 115° |
| 2026-05-05 19:16 | 26.54129 | 51.82096 | 34799 ft | 507 kts | 115° |
| 2026-05-05 19:17 | 26.51724 | 51.89492 | 34806 ft | 506 kts | 115° |
| 2026-05-05 19:17 | 26.49291 | 51.96862 | 34801 ft | 506 kts | 115° |
| 2026-05-05 19:18 | 26.46838 | 52.04205 | 34815 ft | 505 kts | 116° |
| 2026-05-05 19:18 | 26.44379 | 52.11545 | 34809 ft | 504 kts | 115° |
| 2026-05-05 19:19 | 26.41926 | 52.18878 | 34814 ft | 504 kts | 115° |
| 2026-05-05 19:19 | 26.39476 | 52.26211 | 34817 ft | 504 kts | 115° |
| 2026-05-05 19:20 | 26.37027 | 52.33534 | 34796 ft | 504 kts | 115° |
| 2026-05-05 19:20 | 26.34539 | 52.40830 | 34812 ft | 502 kts | 117° |
| 2026-05-05 19:21 | 26.31843 | 52.47938 | 34818 ft | 500 kts | 118° |
| 2026-05-05 19:21 | 26.29022 | 52.55032 | 34809 ft | 500 kts | 119° |
| 2026-05-05 19:22 | 26.26236 | 52.62142 | 34813 ft | 501 kts | 118° |
| 2026-05-05 19:22 | 26.23499 | 52.69282 | 34804 ft | 501 kts | 117° |
| 2026-05-05 19:23 | 26.20786 | 52.76435 | 34799 ft | 501 kts | 117° |
| 2026-05-05 19:23 | 26.18061 | 52.83574 | 34799 ft | 501 kts | 117° |
| 2026-05-05 19:24 | 26.15313 | 52.90711 | 34805 ft | 501 kts | 118° |
| 2026-05-05 19:24 | 26.12567 | 52.97842 | 34801 ft | 502 kts | 118° |
| 2026-05-05 19:25 | 26.09816 | 53.04980 | 34801 ft | 502 kts | 117° |
| 2026-05-05 19:25 | 26.07144 | 53.12167 | 34806 ft | 503 kts | 116° |
| 2026-05-05 19:26 | 26.04536 | 53.19387 | 34805 ft | 503 kts | 116° |
| 2026-05-05 19:26 | 26.01914 | 53.26590 | 34812 ft | 503 kts | 116° |
| 2026-05-05 19:27 | 25.99260 | 53.33774 | 34814 ft | 503 kts | 117° |
| 2026-05-05 19:27 | 25.96611 | 53.40910 | 34775 ft | 503 kts | 117° |
| 2026-05-05 19:28 | 25.95278 | 53.44501 | 34171 ft | 506 kts | 116° |
| 2026-05-05 19:28 | 25.93912 | 53.48160 | 32901 ft | 520 kts | 116° |
| 2026-05-05 19:28 | 25.92531 | 53.51893 | 32051 ft | 523 kts | 115° |
| 2026-05-05 19:28 | 25.91214 | 53.55621 | 31609 ft | 516 kts | 114° |
| 2026-05-05 19:29 | 25.89946 | 53.59336 | 31010 ft | 513 kts | 113° |
| 2026-05-05 19:29 | 25.88706 | 53.63033 | 30437 ft | 510 kts | 113° |
| 2026-05-05 19:29 | 25.87473 | 53.66712 | 29844 ft | 507 kts | 112° |
| 2026-05-05 19:29 | 25.86239 | 53.70363 | 29214 ft | 502 kts | 113° |
| 2026-05-05 19:30 | 25.85007 | 53.73965 | 28673 ft | 496 kts | 113° |
| 2026-05-05 19:30 | 25.83776 | 53.77514 | 28096 ft | 490 kts | 113° |
| 2026-05-05 19:30 | 25.82549 | 53.81019 | 27537 ft | 484 kts | 113° |
| 2026-05-05 19:30 | 25.81333 | 53.84485 | 26995 ft | 479 kts | 113° |
| 2026-05-05 19:31 | 25.80132 | 53.87910 | 26457 ft | 473 kts | 113° |
| 2026-05-05 19:31 | 25.78951 | 53.91290 | 25939 ft | 467 kts | 112° |
| 2026-05-05 19:31 | 25.77786 | 53.94637 | 25416 ft | 462 kts | 112° |
| 2026-05-05 19:31 | 25.76636 | 53.97939 | 24938 ft | 456 kts | 112° |
| 2026-05-05 19:32 | 25.75500 | 54.01200 | 24447 ft | 450 kts | 112° |
| 2026-05-05 19:32 | 25.74426 | 54.04438 | 23982 ft | 445 kts | 110° |
| 2026-05-05 19:32 | 25.73422 | 54.07668 | 23519 ft | 440 kts | 109° |
| 2026-05-05 19:32 | 25.72466 | 54.10876 | 23008 ft | 435 kts | 109° |
| 2026-05-05 19:33 | 25.71534 | 54.14039 | 22559 ft | 429 kts | 109° |
| 2026-05-05 19:33 | 25.70606 | 54.17155 | 22096 ft | 423 kts | 109° |
| 2026-05-05 19:33 | 25.69674 | 54.20233 | 21635 ft | 419 kts | 109° |
| 2026-05-05 19:33 | 25.68744 | 54.23271 | 21167 ft | 414 kts | 109° |
| 2026-05-05 19:34 | 25.67817 | 54.26280 | 20698 ft | 410 kts | 109° |
| 2026-05-05 19:34 | 25.66893 | 54.29258 | 20218 ft | 407 kts | 109° |
| 2026-05-05 19:34 | 25.65976 | 54.32206 | 19736 ft | 403 kts | 109° |
| 2026-05-05 19:35 | 25.64164 | 54.38048 | 18742 ft | 398 kts | 109° |
| 2026-05-05 19:35 | 25.63268 | 54.40938 | 18248 ft | 395 kts | 109° |
| 2026-05-05 19:35 | 25.62377 | 54.43810 | 17700 ft | 393 kts | 108° |
| 2026-05-05 19:35 | 25.61494 | 54.46654 | 17203 ft | 388 kts | 108° |
| 2026-05-05 19:36 | 25.60618 | 54.49467 | 16700 ft | 384 kts | 108° |
| 2026-05-05 19:36 | 25.59750 | 54.52248 | 16207 ft | 380 kts | 108° |
| 2026-05-05 19:36 | 25.58892 | 54.54999 | 15715 ft | 376 kts | 108° |
| 2026-05-05 19:36 | 25.58202 | 54.57769 | 15223 ft | 371 kts | 98° |
| 2026-05-05 19:37 | 25.58041 | 54.60598 | 14727 ft | 366 kts | 86° |
| 2026-05-05 19:37 | 25.58338 | 54.63361 | 14264 ft | 362 kts | 81° |
| 2026-05-05 19:37 | 25.58697 | 54.66110 | 13778 ft | 359 kts | 81° |
| 2026-05-05 19:37 | 25.59047 | 54.68831 | 13260 ft | 355 kts | 81° |
| 2026-05-05 19:38 | 25.59386 | 54.71485 | 12780 ft | 351 kts | 81° |
| 2026-05-05 19:38 | 25.59718 | 54.74120 | 12561 ft | 339 kts | 81° |
| 2026-05-05 19:38 | 25.60034 | 54.76661 | 12440 ft | 327 kts | 81° |
| 2026-05-05 19:38 | 25.60340 | 54.79110 | 12315 ft | 316 kts | 81° |
| 2026-05-05 19:39 | 25.60636 | 54.81479 | 12189 ft | 305 kts | 81° |
| 2026-05-05 19:39 | 25.60922 | 54.83772 | 12067 ft | 296 kts | 81° |
| 2026-05-05 19:39 | 25.61013 | 54.86011 | 11945 ft | 288 kts | 95° |
| 2026-05-05 19:39 | 25.60567 | 54.88141 | 11776 ft | 283 kts | 111° |
| 2026-05-05 19:40 | 25.59790 | 54.90123 | 11709 ft | 280 kts | 112° |
| 2026-05-05 19:40 | 25.59013 | 54.92102 | 11651 ft | 280 kts | 112° |
| 2026-05-05 19:40 | 25.58237 | 54.94085 | 11550 ft | 280 kts | 112° |
| 2026-05-05 19:40 | 25.57463 | 54.96060 | 11435 ft | 279 kts | 112° |
| 2026-05-05 19:41 | 25.56692 | 54.98034 | 11311 ft | 279 kts | 112° |
| 2026-05-05 19:41 | 25.55927 | 55.00001 | 11204 ft | 278 kts | 112° |
| 2026-05-05 19:41 | 25.55163 | 55.01967 | 11090 ft | 278 kts | 112° |
| 2026-05-05 19:41 | 25.54350 | 55.03907 | 10969 ft | 278 kts | 118° |
| 2026-05-05 19:42 | 25.53387 | 55.05760 | 10814 ft | 277 kts | 118° |
| 2026-05-05 19:42 | 25.52427 | 55.07612 | 10663 ft | 277 kts | 118° |
| 2026-05-05 19:42 | 25.51471 | 55.09460 | 10515 ft | 276 kts | 118° |
| 2026-05-05 19:42 | 25.50517 | 55.11300 | 10358 ft | 275 kts | 118° |
| 2026-05-05 19:43 | 25.49564 | 55.13133 | 10214 ft | 275 kts | 118° |
| 2026-05-05 19:43 | 25.48613 | 55.14962 | 10061 ft | 274 kts | 118° |
| 2026-05-05 19:43 | 25.47666 | 55.16788 | 9913 ft | 273 kts | 118° |
| 2026-05-05 19:43 | 25.46720 | 55.18605 | 9761 ft | 272 kts | 118° |
| 2026-05-05 19:44 | 25.45673 | 55.20347 | 9605 ft | 273 kts | 130° |
| 2026-05-05 19:44 | 25.44400 | 55.21908 | 9449 ft | 273 kts | 131° |
| 2026-05-05 19:44 | 25.43127 | 55.23465 | 9303 ft | 273 kts | 131° |
| 2026-05-05 19:44 | 25.41859 | 55.25023 | 9157 ft | 272 kts | 131° |
| 2026-05-05 19:45 | 25.40592 | 55.26581 | 9007 ft | 272 kts | 131° |
| 2026-05-05 19:45 | 25.39327 | 55.28134 | 8861 ft | 272 kts | 131° |
| 2026-05-05 19:45 | 25.38058 | 55.29689 | 8707 ft | 271 kts | 131° |
| 2026-05-05 19:45 | 25.36816 | 55.31211 | 8595 ft | 263 kts | 131° |
| 2026-05-05 19:46 | 25.35543 | 55.32621 | 8486 ft | 255 kts | 142° |
| 2026-05-05 19:46 | 25.34037 | 55.33604 | 8353 ft | 248 kts | 152° |
| 2026-05-05 19:46 | 25.32534 | 55.34478 | 8220 ft | 241 kts | 151° |
| 2026-05-05 19:46 | 25.31059 | 55.35341 | 8095 ft | 240 kts | 151° |
| 2026-05-05 19:47 | 25.29586 | 55.36205 | 7967 ft | 239 kts | 151° |
| 2026-05-05 19:47 | 25.28153 | 55.37044 | 7847 ft | 238 kts | 151° |
| 2026-05-05 19:47 | 25.26751 | 55.37867 | 7722 ft | 237 kts | 151° |
| 2026-05-05 19:47 | 25.25316 | 55.38707 | 7598 ft | 237 kts | 152° |
| 2026-05-05 19:48 | 25.23869 | 55.39555 | 7471 ft | 237 kts | 152° |
| 2026-05-05 19:48 | 25.22417 | 55.40406 | 7346 ft | 236 kts | 152° |
| 2026-05-05 19:48 | 25.20968 | 55.41255 | 7221 ft | 236 kts | 152° |
| 2026-05-05 19:48 | 25.19500 | 55.42112 | 7088 ft | 235 kts | 152° |
| 2026-05-05 19:49 | 25.18057 | 55.42953 | 6975 ft | 234 kts | 152° |
| 2026-05-05 19:49 | 25.17099 | 55.43512 | 6862 ft | 236 kts | 152° |
| 2026-05-05 19:49 | 25.15186 | 55.44627 | 6591 ft | 234 kts | 152° |
| 2026-05-05 19:49 | 25.13752 | 55.45466 | 6402 ft | 233 kts | 152° |
| 2026-05-05 19:50 | 25.12348 | 55.46355 | 6222 ft | 232 kts | 144° |
| 2026-05-05 19:50 | 25.11522 | 55.47074 | 6093 ft | 232 kts | 137° |
| 2026-05-05 19:50 | 25.10438 | 55.48381 | 5914 ft | 231 kts | 126° |
| 2026-05-05 19:50 | 25.09574 | 55.49868 | 5730 ft | 230 kts | 121° |
| 2026-05-05 19:51 | 25.08739 | 55.51373 | 5557 ft | 230 kts | 121° |
| 2026-05-05 19:51 | 25.07907 | 55.52867 | 5365 ft | 229 kts | 121° |
| 2026-05-05 19:51 | 25.07077 | 55.54353 | 5186 ft | 227 kts | 121° |
| 2026-05-05 19:51 | 25.06247 | 55.55835 | 4991 ft | 227 kts | 121° |
| 2026-05-05 19:52 | 25.05456 | 55.57333 | 4794 ft | 225 kts | 111° |
| 2026-05-05 19:52 | 25.05271 | 55.59018 | 4608 ft | 223 kts | 77° |
| 2026-05-05 19:52 | 25.05929 | 55.60527 | 4403 ft | 220 kts | 45° |
| 2026-05-05 19:52 | 25.07152 | 55.61516 | 4201 ft | 219 kts | 31° |
| 2026-05-05 19:53 | 25.08454 | 55.62385 | 4007 ft | 219 kts | 28° |
| 2026-05-05 19:53 | 25.09900 | 55.62739 | 3807 ft | 216 kts | 349° |
| 2026-05-05 19:53 | 25.11174 | 55.61919 | 3627 ft | 218 kts | 309° |
| 2026-05-05 19:53 | 25.12035 | 55.60531 | 3444 ft | 221 kts | 302° |
| 2026-05-05 19:54 | 25.12793 | 55.59053 | 3267 ft | 221 kts | 299° |
| 2026-05-05 19:54 | 25.13547 | 55.57576 | 3084 ft | 221 kts | 301° |
| 2026-05-05 19:54 | 25.14344 | 55.56119 | 2899 ft | 221 kts | 302° |
| 2026-05-05 19:54 | 25.15145 | 55.54681 | 2731 ft | 217 kts | 302° |
| 2026-05-05 19:55 | 25.15927 | 55.53277 | 2564 ft | 212 kts | 302° |
| 2026-05-05 19:55 | 25.16689 | 55.51908 | 2451 ft | 208 kts | 302° |
| 2026-05-05 19:55 | 25.17434 | 55.50569 | 2258 ft | 201 kts | 302° |
| 2026-05-05 19:55 | 25.18145 | 55.49291 | 1996 ft | 189 kts | 303° |
| 2026-05-05 19:56 | 25.18797 | 55.48117 | 1774 ft | 174 kts | 303° |
| 2026-05-05 19:56 | 25.19405 | 55.47024 | 1595 ft | 160 kts | 303° |
| 2026-05-05 19:56 | 25.19977 | 55.45993 | 1370 ft | 155 kts | 303° |
| 2026-05-05 19:56 | 25.20527 | 55.45004 | 1188 ft | 151 kts | 303° |
| 2026-05-05 19:57 | 25.21073 | 55.44021 | 994 ft | 149 kts | 302° |
| 2026-05-05 19:57 | 25.21606 | 55.43057 | 829 ft | 145 kts | 303° |
| 2026-05-05 19:57 | 25.22131 | 55.42113 | 626 ft | 143 kts | 303° |
| 2026-05-05 19:57 | 25.22652 | 55.41181 | 432 ft | 142 kts | 302° |
| 2026-05-05 19:58 | 25.23168 | 55.40249 | 242 ft | 141 kts | 303° |
| 2026-05-05 19:58 | 25.23663 | 55.39350 | 51 ft | 141 kts | 304° |
| 2026-05-05 19:58 | 25.24104 | 55.38568 | 28 ft | 106 kts | 301° |
| 2026-05-05 19:58 | 25.24396 | 55.38034 | 28 ft | 62 kts | 301° |
| 2026-05-05 19:59 | 25.24592 | 55.37685 | 25 ft | 48 kts | 301° |
| 2026-05-05 19:59 | 25.24736 | 55.37411 | 25 ft | 32 kts | 292° |
| 2026-05-05 19:59 | 25.24784 | 55.37174 | 24 ft | 32 kts | 272° |
| 2026-05-05 19:59 | 25.24798 | 55.36978 | 22 ft | 17 kts | 285° |
| 2026-05-05 20:00 | 25.24842 | 55.36849 | 22 ft | 19 kts | 291° |
| 2026-05-05 20:00 | 25.24885 | 55.36697 | 23 ft | 22 kts | 289° |
| 2026-05-05 20:00 | 25.24964 | 55.36537 | 22 ft | 25 kts | 302° |
| 2026-05-05 20:00 | 25.25061 | 55.36366 | 23 ft | 28 kts | 302° |
| 2026-05-05 20:01 | 25.25167 | 55.36177 | 22 ft | 30 kts | 302° |
| 2026-05-05 20:01 | 25.25281 | 55.35976 | 21 ft | 32 kts | 301° |
| 2026-05-05 20:01 | 25.25403 | 55.35760 | 23 ft | 34 kts | 302° |
| 2026-05-05 20:01 | 25.25530 | 55.35533 | 23 ft | 36 kts | 302° |
| 2026-05-05 20:02 | 25.25664 | 55.35294 | 23 ft | 37 kts | 301° |
| 2026-05-05 20:02 | 25.25785 | 55.35078 | 21 ft | 23 kts | 300° |
| 2026-05-05 20:02 | 25.25853 | 55.34931 | 21 ft | 22 kts | 286° |
| 2026-05-05 20:02 | 25.25865 | 55.34774 | 21 ft | 18 kts | 273° |
| 2026-05-05 20:03 | 25.25917 | 55.34653 | 21 ft | 19 kts | 302° |
| 2026-05-05 20:03 | 25.25983 | 55.34535 | 21 ft | 8 kts | 301° |
| 2026-05-05 20:03 | 25.25986 | 55.34529 | 21 ft | 0 kts | 301° |
| 2026-05-05 20:07 | 25.25987 | 55.34528 | 21 ft | 1 kts | 301° |
| 2026-05-05 20:07 | 25.25994 | 55.34513 | 21 ft | 3 kts | 289° |
| 2026-05-05 20:07 | 25.25978 | 55.34489 | 22 ft | 5 kts | 212° |
| 2026-05-05 20:08 | 25.25939 | 55.34464 | 21 ft | 7 kts | 212° |
| 2026-05-05 20:08 | 25.25924 | 55.34454 | 21 ft | 0 kts | 212° |